Time,TemperatureF,DewpointF,PressureIn,WindDirection,WindDirectionDegrees,WindSpeedMPH,WindSpeedGustMPH,Humidity,HourlyPrecipIn,Conditions,Clouds,dailyrainin,SoftwareType,DateUTC
2016-12-06 00:01:00,26.1,20.5,30.09,WSW,244,3.6,4.0,79,0.00,,SCT040,0.00,VWS V15.00,2016-12-06 05:01:00,
2016-12-06 00:06:00,26.1,20.8,30.09,WSW,245,3.6,4.0,80,0.00,,SCT040,0.00,VWS V15.00,2016-12-06 05:06:00,
2016-12-06 00:11:00,26.1,20.8,30.09,WSW,244,3.6,4.0,80,0.00,,SCT040,0.00,VWS V15.00,2016-12-06 05:11:00,
2016-12-06 00:16:00,26.1,20.8,30.09,WSW,244,3.6,4.0,80,0.00,,SCT040,0.00,VWS V15.00,2016-12-06 05:16:00,
2016-12-06 00:21:00,25.9,20.6,30.09,WSW,244,2.2,2.7,80,0.00,,SCT040,0.00,VWS V15.00,2016-12-06 05:21:00,
2016-12-06 00:26:00,25.7,20.4,30.09,WSW,244,0.0,2.2,80,0.00,,SCT040,0.00,VWS V15.00,2016-12-06 05:26:00,
2016-12-06 00:31:00,25.5,20.2,30.09,WSW,244,0.0,0.0,80,0.00,,SCT040,0.00,VWS V15.00,2016-12-06 05:31:00,
2016-12-06 00:36:00,25.3,20.0,30.09,WSW,244,0.0,0.0,80,0.00,,SCT040,0.00,VWS V15.00,2016-12-06 05:36:00,
2016-12-06 00:41:00,25.3,20.0,30.09,WSW,244,3.1,3.6,80,0.00,,SCT040,0.00,VWS V15.00,2016-12-06 05:41:00,
2016-12-06 00:46:00,25.3,20.0,30.09,WSW,244,2.2,3.1,80,0.00,,SCT040,0.00,VWS V15.00,2016-12-06 05:46:00,
2016-12-06 00:51:00,25.2,19.9,30.09,WSW,244,2.2,2.7,80,0.00,,SCT040,0.00,VWS V15.00,2016-12-06 05:51:00,
2016-12-06 00:57:00,25.0,19.7,30.09,WSW,244,2.7,2.7,80,0.00,,SCT040,0.00,VWS V15.00,2016-12-06 05:57:00,
2016-12-06 01:02:00,24.8,19.5,30.09,WSW,244,4.0,4.0,80,0.00,,SCT040,0.00,VWS V15.00,2016-12-06 06:02:00,
2016-12-06 01:07:00,24.8,19.5,30.09,WSW,244,3.1,3.6,80,0.00,,SCT040,0.00,VWS V15.00,2016-12-06 06:07:00,
2016-12-06 01:12:00,25.0,19.7,30.09,WSW,244,3.1,3.1,80,0.00,,SCT040,0.00,VWS V15.00,2016-12-06 06:12:00,
2016-12-06 01:17:00,24.8,19.5,30.09,WSW,244,3.1,3.1,80,0.00,,SCT040,0.00,VWS V15.00,2016-12-06 06:17:00,
2016-12-06 01:22:00,24.6,19.3,30.09,WSW,244,3.6,3.6,80,0.00,,SCT040,0.00,VWS V15.00,2016-12-06 06:22:00,
2016-12-06 01:27:00,24.4,19.2,30.06,WSW,244,3.6,3.6,80,0.00,,SCT040,0.00,VWS V15.00,2016-12-06 06:27:00,
2016-12-06 01:32:00,24.6,19.3,30.06,WSW,244,0.0,3.1,80,0.00,,SCT040,0.00,VWS V15.00,2016-12-06 06:32:00,
2016-12-06 01:37:00,24.4,19.2,30.06,WSW,244,0.0,0.0,80,0.00,,SCT040,0.00,VWS V15.00,2016-12-06 06:37:00,
2016-12-06 01:42:00,24.4,19.2,30.06,WSW,244,0.0,0.0,80,0.00,,SCT040,0.00,VWS V15.00,2016-12-06 06:42:00,
2016-12-06 01:47:00,24.4,19.2,30.06,WSW,244,0.0,0.0,80,0.00,,SCT040,0.00,VWS V15.00,2016-12-06 06:47:00,
2016-12-06 01:52:00,24.3,19.0,30.06,WSW,244,0.0,0.0,80,0.00,,SCT040,0.00,VWS V15.00,2016-12-06 06:52:00,
2016-12-06 01:58:00,24.3,19.0,30.09,WSW,244,0.0,0.0,80,0.00,,SCT040,0.00,VWS V15.00,2016-12-06 06:58:00,
2016-12-06 02:03:00,24.3,19.0,30.09,WSW,244,0.0,0.0,80,0.00,,SCT040,0.00,VWS V15.00,2016-12-06 07:03:00,
2016-12-06 02:08:00,24.3,19.0,30.09,WSW,244,0.0,0.0,80,0.00,,SCT040,0.00,VWS V15.00,2016-12-06 07:08:00,
2016-12-06 02:13:00,24.4,19.2,30.09,WSW,244,0.0,0.0,80,0.00,,SCT040,0.00,VWS V15.00,2016-12-06 07:13:00,
2016-12-06 02:18:00,24.1,18.8,30.09,WSW,244,0.0,0.0,80,0.00,,SCT040,0.00,VWS V15.00,2016-12-06 07:18:00,
2016-12-06 02:23:00,24.3,19.0,30.09,WSW,244,0.0,0.0,80,0.00,,SCT040,0.00,VWS V15.00,2016-12-06 07:23:00,
2016-12-06 02:28:00,24.1,18.8,30.09,WSW,244,0.0,0.0,80,0.00,,SCT040,0.00,VWS V15.00,2016-12-06 07:28:00,
2016-12-06 02:33:00,24.1,18.8,30.09,WSW,244,0.0,0.0,80,0.00,,SCT040,0.00,VWS V15.00,2016-12-06 07:33:00,
2016-12-06 02:38:00,24.1,18.8,30.09,WSW,244,0.0,0.0,80,0.00,,SCT040,0.00,VWS V15.00,2016-12-06 07:38:00,
2016-12-06 02:43:00,23.9,18.6,30.06,WSW,244,0.0,0.0,80,0.00,,SCT040,0.00,VWS V15.00,2016-12-06 07:43:00,
2016-12-06 02:48:00,23.9,18.6,30.06,WSW,244,0.0,0.0,80,0.00,,SCT040,0.00,VWS V15.00,2016-12-06 07:48:00,
2016-12-06 02:53:00,24.3,19.3,30.06,WSW,244,0.0,0.0,81,0.00,,SCT040,0.00,VWS V15.00,2016-12-06 07:53:00,
2016-12-06 02:59:00,24.1,19.1,30.06,WSW,244,0.0,0.0,81,0.00,,SCT040,0.00,VWS V15.00,2016-12-06 07:59:00,
2016-12-06 03:04:00,23.9,18.9,30.06,WSW,244,0.0,0.0,81,0.00,,FEW040,0.00,VWS V15.00,2016-12-06 08:04:00,
2016-12-06 03:09:00,24.1,19.1,30.06,WSW,244,0.0,0.0,81,0.00,,FEW040,0.00,VWS V15.00,2016-12-06 08:09:00,
2016-12-06 03:14:00,23.9,18.9,30.06,WSW,244,0.0,0.0,81,0.00,,FEW040,0.00,VWS V15.00,2016-12-06 08:14:00,
2016-12-06 03:19:00,23.9,18.9,30.06,WSW,244,0.0,0.0,81,0.00,,FEW040,0.00,VWS V15.00,2016-12-06 08:19:00,
2016-12-06 03:24:00,23.7,18.8,30.06,WSW,244,0.0,0.0,81,0.00,,FEW040,0.00,VWS V15.00,2016-12-06 08:24:00,
2016-12-06 03:29:00,23.7,18.8,30.06,WSW,244,0.0,0.0,81,0.00,,FEW040,0.00,VWS V15.00,2016-12-06 08:29:00,
2016-12-06 03:34:00,23.7,18.8,30.06,WSW,244,0.0,0.0,81,0.00,,FEW040,0.00,VWS V15.00,2016-12-06 08:34:00,
2016-12-06 03:39:00,23.7,18.8,30.06,WSW,244,0.0,0.0,81,0.00,,FEW040,0.00,VWS V15.00,2016-12-06 08:39:00,
2016-12-06 03:44:00,23.7,18.8,30.06,WSW,244,0.0,0.0,81,0.00,,FEW040,0.00,VWS V15.00,2016-12-06 08:44:00,
2016-12-06 03:49:00,23.7,18.8,30.06,WSW,244,0.0,0.0,81,0.00,,FEW040,0.00,VWS V15.00,2016-12-06 08:49:00,
2016-12-06 03:54:00,23.5,18.6,30.06,WSW,244,0.0,0.0,81,0.00,,FEW040,0.00,VWS V15.00,2016-12-06 08:54:00,
2016-12-06 03:59:00,23.4,18.1,30.06,WSW,244,0.0,0.0,80,0.00,,FEW040,0.00,VWS V15.00,2016-12-06 08:59:00,
2016-12-06 04:04:00,23.5,18.3,30.06,WSW,244,0.0,0.0,80,0.00,,FEW040,0.00,VWS V15.00,2016-12-06 09:04:00,
2016-12-06 04:10:00,23.4,18.1,30.06,WSW,244,0.0,0.0,80,0.00,,FEW040,0.00,VWS V15.00,2016-12-06 09:10:00,
2016-12-06 04:15:00,23.7,18.8,30.06,WSW,244,0.0,0.0,81,0.00,,FEW040,0.00,VWS V15.00,2016-12-06 09:15:00,
2016-12-06 04:20:00,23.5,18.6,30.06,WSW,244,0.0,0.0,81,0.00,,FEW040,0.00,VWS V15.00,2016-12-06 09:20:00,
2016-12-06 04:25:00,23.4,18.4,30.06,WSW,244,0.0,0.0,81,0.00,,FEW040,0.00,VWS V15.00,2016-12-06 09:25:00,
2016-12-06 04:29:00,23.2,18.2,30.03,WSW,244,0.0,0.0,81,0.00,,FEW040,0.00,VWS V15.00,2016-12-06 09:29:00,
2016-12-06 04:35:00,23.4,18.4,30.03,WSW,244,0.0,0.0,81,0.00,,FEW040,0.00,VWS V15.00,2016-12-06 09:35:00,
2016-12-06 04:40:00,23.4,18.4,30.03,WSW,244,0.0,0.0,81,0.00,,FEW040,0.00,VWS V15.00,2016-12-06 09:40:00,
2016-12-06 04:45:00,23.4,18.4,30.03,WSW,245,0.0,0.0,81,0.00,,FEW040,0.00,VWS V15.00,2016-12-06 09:45:00,
2016-12-06 04:50:00,23.2,18.2,30.03,WSW,244,0.0,0.0,81,0.00,,FEW040,0.00,VWS V15.00,2016-12-06 09:50:00,
2016-12-06 04:55:00,23.0,18.0,30.03,WSW,244,0.0,0.0,81,0.00,,FEW040,0.00,VWS V15.00,2016-12-06 09:55:00,
2016-12-06 05:00:00,23.4,18.4,30.03,WSW,244,0.0,0.0,81,0.00,,CLR,0.00,VWS V15.00,2016-12-06 10:00:00,
2016-12-06 05:05:00,23.4,18.4,30.03,WSW,244,0.0,0.0,81,0.00,,CLR,0.00,VWS V15.00,2016-12-06 10:05:00,
2016-12-06 05:10:00,23.4,18.4,30.03,WSW,244,0.0,0.0,81,0.00,,CLR,0.00,VWS V15.00,2016-12-06 10:10:00,
2016-12-06 05:15:00,23.0,18.0,30.03,WSW,244,0.0,0.0,81,0.00,,CLR,0.00,VWS V15.00,2016-12-06 10:15:00,
2016-12-06 05:20:00,23.2,18.2,30.03,WSW,244,0.0,0.0,81,0.00,,CLR,0.00,VWS V15.00,2016-12-06 10:20:00,
2016-12-06 05:25:00,23.4,18.7,30.03,WSW,244,0.0,0.0,82,0.00,,CLR,0.00,VWS V15.00,2016-12-06 10:25:00,
2016-12-06 05:30:00,23.2,18.5,30.03,WSW,244,0.0,0.0,82,0.00,,CLR,0.00,VWS V15.00,2016-12-06 10:30:00,
2016-12-06 05:35:00,23.4,18.7,30.03,WSW,244,2.7,3.1,82,0.00,,CLR,0.00,VWS V15.00,2016-12-06 10:35:00,
2016-12-06 05:40:00,23.5,18.9,30.03,WSW,244,2.7,4.0,82,0.00,,CLR,0.00,VWS V15.00,2016-12-06 10:40:00,
2016-12-06 05:46:00,23.4,18.7,30.03,WSW,244,2.7,3.1,82,0.00,,CLR,0.00,VWS V15.00,2016-12-06 10:46:00,
2016-12-06 05:51:00,23.4,18.7,30.03,WSW,244,0.0,0.0,82,0.00,,CLR,0.00,VWS V15.00,2016-12-06 10:51:00,
2016-12-06 05:56:00,23.2,18.2,30.03,WSW,244,2.2,2.7,81,0.00,,CLR,0.00,VWS V15.00,2016-12-06 10:56:00,
2016-12-06 06:01:00,23.4,18.4,30.03,WSW,244,0.0,0.0,81,0.00,,FEW040,0.00,VWS V15.00,2016-12-06 11:01:00,
2016-12-06 06:06:00,23.2,18.2,30.03,WSW,244,0.0,0.0,81,0.00,,FEW040,0.00,VWS V15.00,2016-12-06 11:06:00,
2016-12-06 06:11:00,23.4,18.4,30.03,WSW,244,0.0,0.0,81,0.00,,FEW040,0.00,VWS V15.00,2016-12-06 11:11:00,
2016-12-06 06:16:00,23.5,18.9,30.03,SSW,193,4.0,4.5,82,0.00,,FEW040,0.00,VWS V15.00,2016-12-06 11:16:00,
2016-12-06 06:21:00,23.5,18.6,30.03,SSW,194,3.6,4.0,81,0.00,,FEW040,0.00,VWS V15.00,2016-12-06 11:21:00,
2016-12-06 06:26:00,23.9,19.2,30.03,South,191,3.1,4.0,82,0.00,,FEW040,0.00,VWS V15.00,2016-12-06 11:26:00,
2016-12-06 06:31:00,23.9,19.2,30.03,SSW,192,2.7,4.0,82,0.00,,FEW040,0.00,VWS V15.00,2016-12-06 11:31:00,
2016-12-06 06:36:00,23.9,19.2,30.03,SSW,192,0.0,3.1,82,0.00,,FEW040,0.00,VWS V15.00,2016-12-06 11:36:00,
2016-12-06 06:41:00,23.9,19.2,30.03,SSW,192,0.0,3.1,82,0.00,,FEW040,0.00,VWS V15.00,2016-12-06 11:41:00,
2016-12-06 06:46:00,23.9,18.9,30.03,SSW,192,2.7,2.7,81,0.00,,FEW040,0.00,VWS V15.00,2016-12-06 11:46:00,
2016-12-06 06:51:00,24.3,19.6,30.03,SSW,192,3.1,3.6,82,0.00,,FEW040,0.00,VWS V15.00,2016-12-06 11:51:00,
2016-12-06 06:56:00,24.3,19.6,30.03,SSW,192,0.0,2.2,82,0.00,,FEW040,0.00,VWS V15.00,2016-12-06 11:56:00,
2016-12-06 07:02:00,24.1,19.4,30.03,SSW,192,2.7,3.1,82,0.00,,SCT250,0.00,VWS V15.00,2016-12-06 12:02:00,
2016-12-06 07:07:00,24.4,19.7,30.03,SSW,192,3.6,4.0,82,0.00,,SCT250,0.00,VWS V15.00,2016-12-06 12:07:00,
2016-12-06 07:12:00,24.6,19.9,30.03,SSE,165,0.0,4.0,82,0.00,,SCT250,0.00,VWS V15.00,2016-12-06 12:12:00,
2016-12-06 07:17:00,24.8,20.1,30.03,SSE,165,0.0,4.0,82,0.00,,SCT250,0.00,VWS V15.00,2016-12-06 12:17:00,
2016-12-06 07:22:00,24.8,20.1,30.03,SSE,165,0.0,2.7,82,0.00,,SCT250,0.00,VWS V15.00,2016-12-06 12:22:00,
2016-12-06 07:27:00,25.2,20.5,30.03,SSE,165,0.0,0.0,82,0.00,,SCT250,0.00,VWS V15.00,2016-12-06 12:27:00,
2016-12-06 07:32:00,25.2,20.5,30.03,SSE,165,2.7,2.7,82,0.00,,SCT250,0.00,VWS V15.00,2016-12-06 12:32:00,
2016-12-06 07:37:00,25.3,20.6,30.03,SSE,164,2.7,4.0,82,0.00,,SCT250,0.00,VWS V15.00,2016-12-06 12:37:00,
2016-12-06 07:42:00,25.7,21.0,30.03,SSE,164,0.0,0.0,82,0.00,,SCT250,0.00,VWS V15.00,2016-12-06 12:42:00,
2016-12-06 07:47:00,26.2,21.8,30.03,SSE,164,3.1,4.0,83,0.00,,SCT250,0.00,VWS V15.00,2016-12-06 12:47:00,
2016-12-06 07:52:00,26.4,22.0,30.03,SSE,164,3.1,4.0,83,0.00,,SCT250,0.00,VWS V15.00,2016-12-06 12:52:00,
2016-12-06 07:57:00,26.8,22.3,30.03,SE,140,3.1,3.6,83,0.00,,SCT250,0.00,VWS V15.00,2016-12-06 12:57:00,
2016-12-06 08:02:00,27.3,22.9,30.03,SSE,163,4.9,4.9,83,0.00,,SCT250,0.00,VWS V15.00,2016-12-06 13:02:00,
2016-12-06 08:07:00,27.9,23.4,30.03,SSE,159,2.7,4.9,83,0.00,,SCT250,0.00,VWS V15.00,2016-12-06 13:07:00,
2016-12-06 08:12:00,28.4,23.9,30.03,SSE,159,2.7,4.0,83,0.00,,SCT250,0.00,VWS V15.00,2016-12-06 13:12:00,
2016-12-06 08:18:00,28.9,24.4,30.03,SSE,162,3.1,5.4,83,0.00,,SCT250,0.00,VWS V15.00,2016-12-06 13:18:00,
2016-12-06 08:23:00,29.7,25.1,30.03,ESE,105,5.4,6.3,83,0.00,,SCT250,0.00,VWS V15.00,2016-12-06 13:23:00,
2016-12-06 08:28:00,30.0,25.5,30.03,ESE,119,4.0,4.9,83,0.00,,SCT250,0.00,VWS V15.00,2016-12-06 13:28:00,
2016-12-06 08:33:00,30.4,25.5,30.03,ESE,119,4.0,6.3,82,0.00,,SCT250,0.00,VWS V15.00,2016-12-06 13:33:00,
2016-12-06 08:38:00,30.7,25.6,30.03,SE,126,3.6,5.4,81,0.00,,SCT250,0.00,VWS V15.00,2016-12-06 13:38:00,
2016-12-06 08:43:00,31.1,26.0,30.00,ESE,102,4.0,6.3,81,0.00,,SCT250,0.00,VWS V15.00,2016-12-06 13:43:00,
2016-12-06 08:48:00,31.6,26.2,30.00,ESE,120,2.7,6.3,80,0.00,,SCT250,0.00,VWS V15.00,2016-12-06 13:48:00,
2016-12-06 08:53:00,31.8,26.4,30.00,SE,126,5.4,8.1,80,0.00,,SCT250,0.00,VWS V15.00,2016-12-06 13:53:00,
2016-12-06 08:58:00,32.0,26.2,30.00,ESE,116,5.4,8.3,79,0.00,,SCT250,0.00,VWS V15.00,2016-12-06 13:58:00,
2016-12-06 09:03:00,32.2,26.4,30.00,ESE,113,2.7,6.3,79,0.00,,BKN250,0.00,VWS V15.00,2016-12-06 14:03:00,
2016-12-06 09:08:00,32.4,26.3,30.00,SE,144,3.1,5.8,78,0.00,,BKN250,0.00,VWS V15.00,2016-12-06 14:08:00,
2016-12-06 09:13:00,32.5,26.5,30.00,East,95,6.3,7.6,78,0.00,,BKN250,0.00,VWS V15.00,2016-12-06 14:13:00,
2016-12-06 09:19:00,32.9,26.8,30.00,ENE,78,4.0,6.3,78,0.00,,BKN250,0.00,VWS V15.00,2016-12-06 14:19:00,
2016-12-06 09:24:00,33.1,27.0,30.00,ESE,119,5.4,7.6,78,0.00,,BKN250,0.00,VWS V15.00,2016-12-06 14:24:00,
2016-12-06 09:29:00,33.3,26.8,30.00,ENE,58,2.7,7.6,77,0.00,,BKN250,0.00,VWS V15.00,2016-12-06 14:29:00,
2016-12-06 09:34:00,33.4,27.0,30.00,SE,137,4.9,5.8,77,0.00,,BKN250,0.00,VWS V15.00,2016-12-06 14:34:00,
2016-12-06 09:39:00,34.0,27.5,30.00,ESE,109,5.8,10.5,77,0.00,,BKN250,0.00,VWS V15.00,2016-12-06 14:39:00,
2016-12-06 09:44:00,34.3,27.9,30.00,ENE,74,6.3,8.1,77,0.00,,BKN250,0.00,VWS V15.00,2016-12-06 14:44:00,
2016-12-06 09:49:00,34.9,28.1,30.00,SE,146,4.9,8.7,76,0.00,,BKN250,0.00,VWS V15.00,2016-12-06 14:49:00,
2016-12-06 09:54:00,35.2,28.1,30.00,SSE,161,4.0,8.3,75,0.00,,BKN250,0.00,VWS V15.00,2016-12-06 14:54:00,
2016-12-06 09:59:00,35.6,28.5,30.00,ESE,110,6.3,10.1,75,0.00,,BKN250,0.00,VWS V15.00,2016-12-06 14:59:00,
2016-12-06 10:04:00,36.0,28.5,30.00,ESE,123,3.6,8.7,74,0.00,,BKN240,0.00,VWS V15.00,2016-12-06 15:04:00,
2016-12-06 10:09:00,36.0,28.5,30.00,ESE,114,6.3,8.3,74,0.00,,BKN240,0.00,VWS V15.00,2016-12-06 15:09:00,
2016-12-06 10:15:00,36.1,28.3,30.00,ESE,108,5.4,8.3,73,0.00,,BKN240,0.00,VWS V15.00,2016-12-06 15:15:00,
2016-12-06 10:20:00,36.3,28.5,30.00,ESE,111,5.8,5.8,73,0.00,,BKN240,0.00,VWS V15.00,2016-12-06 15:20:00,
2016-12-06 10:25:00,36.3,28.2,30.00,ESE,106,2.7,7.6,72,0.00,,BKN240,0.00,VWS V15.00,2016-12-06 15:25:00,
2016-12-06 10:30:00,36.5,28.0,30.00,East,87,7.6,7.6,71,0.00,,BKN240,0.00,VWS V15.00,2016-12-06 15:30:00,
2016-12-06 10:35:00,36.9,28.4,30.00,ENE,61,4.0,4.0,71,0.00,,BKN240,0.00,VWS V15.00,2016-12-06 15:35:00,
2016-12-06 10:45:00,37.4,28.5,29.97,NE,46,5.4,5.4,70,0.04,,BKN240,0.04,VWS V15.00,2016-12-06 15:45:00,
2016-12-06 10:50:00,37.6,28.7,29.97,ESE,120,5.4,7.6,70,0.04,,BKN240,0.04,VWS V15.00,2016-12-06 15:50:00,
2016-12-06 10:55:00,37.9,28.7,29.97,ESE,109,5.8,8.1,69,0.04,,BKN240,0.04,VWS V15.00,2016-12-06 15:55:00,
2016-12-06 11:00:00,38.1,28.9,29.94,SE,124,5.4,7.6,69,0.04,,BKN230,0.04,VWS V15.00,2016-12-06 16:00:00,
2016-12-06 11:05:00,38.3,28.7,29.94,East,96,5.4,5.8,68,0.04,,BKN230,0.04,VWS V15.00,2016-12-06 16:05:00,
2016-12-06 11:10:00,38.1,28.5,29.94,East,87,5.4,8.7,68,0.04,,BKN230,0.04,VWS V15.00,2016-12-06 16:10:00,
2016-12-06 11:15:00,38.1,28.5,29.94,East,89,7.6,7.6,68,0.04,,BKN230,0.04,VWS V15.00,2016-12-06 16:15:00,
2016-12-06 11:21:00,38.1,28.5,29.94,ESE,109,5.4,7.6,68,0.04,,BKN230,0.04,VWS V15.00,2016-12-06 16:21:00,
2016-12-06 11:26:00,38.3,28.7,29.94,SSE,157,4.0,8.3,68,0.04,,BKN230,0.04,VWS V15.00,2016-12-06 16:26:00,
2016-12-06 11:31:00,38.3,28.7,29.94,ESE,118,6.3,6.3,68,0.04,,BKN230,0.04,VWS V15.00,2016-12-06 16:31:00,
2016-12-06 11:36:00,38.5,28.9,29.94,ESE,115,4.5,7.6,68,0.04,,BKN230,0.04,VWS V15.00,2016-12-06 16:36:00,
2016-12-06 11:41:00,38.5,28.5,29.94,SSE,163,5.4,8.1,67,0.00,,BKN230,0.04,VWS V15.00,2016-12-06 16:41:00,
2016-12-06 11:46:00,38.7,28.7,29.94,SE,131,7.6,7.6,67,0.00,,BKN230,0.04,VWS V15.00,2016-12-06 16:46:00,
2016-12-06 11:51:00,38.8,28.8,29.94,SE,124,5.8,8.1,67,0.00,,BKN230,0.04,VWS V15.00,2016-12-06 16:51:00,
2016-12-06 11:56:00,39.0,28.6,29.91,ESE,123,4.9,8.7,66,0.00,,BKN230,0.04,VWS V15.00,2016-12-06 16:56:00,
2016-12-06 12:01:00,39.2,28.8,29.91,East,84,3.1,5.8,66,0.00,,BKN230,0.04,VWS V15.00,2016-12-06 17:01:00,
2016-12-06 12:06:00,39.4,29.0,29.91,ESE,122,5.4,8.1,66,0.00,,BKN230,0.04,VWS V15.00,2016-12-06 17:06:00,
2016-12-06 12:11:00,39.6,28.8,29.91,SSE,162,4.0,8.1,65,0.00,,BKN230,0.04,VWS V15.00,2016-12-06 17:11:00,
2016-12-06 12:16:00,39.6,28.8,29.91,SE,136,5.4,12.3,65,0.00,,BKN230,0.04,VWS V15.00,2016-12-06 17:16:00,
2016-12-06 12:22:00,39.4,28.2,29.91,SE,143,7.6,10.1,64,0.00,,BKN230,0.04,VWS V15.00,2016-12-06 17:22:00,
2016-12-06 12:27:00,39.7,28.6,29.88,South,180,5.4,5.8,64,0.00,,BKN230,0.04,VWS V15.00,2016-12-06 17:27:00,
2016-12-06 12:32:00,39.9,28.8,29.88,SE,136,7.6,7.6,64,0.00,,BKN230,0.04,VWS V15.00,2016-12-06 17:32:00,
2016-12-06 12:37:00,39.9,28.4,29.88,SE,131,7.6,13.2,63,0.00,,BKN230,0.04,VWS V15.00,2016-12-06 17:37:00,
2016-12-06 12:42:00,39.9,28.4,29.88,East,97,5.8,8.3,63,0.00,,BKN230,0.04,VWS V15.00,2016-12-06 17:42:00,
2016-12-06 12:47:00,40.1,28.1,29.88,East,95,8.7,11.0,62,0.00,,BKN230,0.04,VWS V15.00,2016-12-06 17:47:00,